sensor_id;sensor_type;location;lat;lon;timestamp;temperature;humidity
30385;DHT22;17181;51.002;4.096;2023-07-16T14:14:32;25.00;61.40
30385;DHT22;17181;51.002;4.096;2023-07-16T14:17:01;25.00;61.50
30385;DHT22;17181;51.002;4.096;2023-07-16T14:19:27;24.90;61.80
30385;DHT22;17181;51.002;4.096;2023-07-16T14:21:58;24.70;62.30
30385;DHT22;17181;51.002;4.096;2023-07-16T14:24:24;24.70;62.80
30385;DHT22;17181;51.002;4.096;2023-07-16T14:26:50;24.70;63.70
30385;DHT22;17181;51.002;4.096;2023-07-16T14:29:22;24.80;63.60
30385;DHT22;17181;51.002;4.096;2023-07-16T14:31:48;25.00;63.60
30385;DHT22;17181;51.002;4.096;2023-07-16T14:34:14;25.10;63.00
30385;DHT22;17181;51.002;4.096;2023-07-16T14:36:41;25.30;62.60
30385;DHT22;17181;51.002;4.096;2023-07-16T14:39:09;25.40;63.10
30385;DHT22;17181;51.002;4.096;2023-07-16T14:41:35;25.70;62.80
30385;DHT22;17181;51.002;4.096;2023-07-16T14:44:11;25.90;62.70
30385;DHT22;17181;51.002;4.096;2023-07-16T14:46:37;26.20;61.70
30385;DHT22;17181;51.002;4.096;2023-07-16T14:49:03;26.50;62.50
30385;DHT22;17181;51.002;4.096;2023-07-16T14:51:29;26.90;60.80
30385;DHT22;17181;51.002;4.096;2023-07-16T14:54:07;27.20;59.40
30385;DHT22;17181;51.002;4.096;2023-07-16T15:20:41;25.10;61.50
30385;DHT22;17181;51.002;4.096;2023-07-16T15:23:14;25.10;62.10
30385;DHT22;17181;51.002;4.096;2023-07-16T15:25:44;24.90;62.00
30385;DHT22;17181;51.002;4.096;2023-07-16T15:28:10;24.80;61.80
30385;DHT22;17181;51.002;4.096;2023-07-16T15:30:37;24.70;61.70
30385;DHT22;17181;51.002;4.096;2023-07-16T15:33:12;24.60;61.90
30385;DHT22;17181;51.002;4.096;2023-07-16T15:35:42;24.50;62.20
30385;DHT22;17181;51.002;4.096;2023-07-16T15:52:30;23.70;68.90
30385;DHT22;17181;51.002;4.096;2023-07-16T15:55:03;23.90;69.70
30385;DHT22;17181;51.002;4.096;2023-07-16T17:02:04;23.20;69.30
30385;DHT22;17181;51.002;4.096;2023-07-16T17:04:31;23.20;69.10
30385;DHT22;17181;51.002;4.096;2023-07-16T17:07:00;23.30;68.60
30385;DHT22;17181;51.002;4.096;2023-07-16T17:09:39;23.20;68.00
30385;DHT22;17181;51.002;4.096;2023-07-16T17:12:10;23.20;67.80
30385;DHT22;17181;51.002;4.096;2023-07-16T17:14:45;23.10;68.20
30385;DHT22;17181;51.002;4.096;2023-07-16T17:39:45;22.70;69.40
30385;DHT22;17181;51.002;4.096;2023-07-16T17:42:19;22.70;69.40
30385;DHT22;17181;51.002;4.096;2023-07-16T17:44:46;22.70;69.30
30385;DHT22;17181;51.002;4.096;2023-07-16T17:47:16;22.70;69.30
30385;DHT22;17181;51.002;4.096;2023-07-16T17:49:42;22.60;69.10
30385;DHT22;17181;51.002;4.096;2023-07-16T17:52:08;22.60;69.50
30385;DHT22;17181;51.002;4.096;2023-07-16T17:54:34;22.50;70.00
30385;DHT22;17181;51.002;4.096;2023-07-16T17:57:00;22.40;70.20
30385;DHT22;17181;51.002;4.096;2023-07-16T18:04:58;22.30;70.80
30385;DHT22;17181;51.002;4.096;2023-07-16T18:07:25;22.20;70.80
30385;DHT22;17181;51.002;4.096;2023-07-16T18:09:51;22.20;70.90
30385;DHT22;17181;51.002;4.096;2023-07-16T18:12:19;22.20;71.10
30385;DHT22;17181;51.002;4.096;2023-07-16T18:14:46;22.20;71.20
30385;DHT22;17181;51.002;4.096;2023-07-16T18:17:16;22.20;71.30
30385;DHT22;17181;51.002;4.096;2023-07-16T18:19:42;22.20;71.50
30385;DHT22;17181;51.002;4.096;2023-07-16T18:22:08;22.10;71.60
30385;DHT22;17181;51.002;4.096;2023-07-16T18:24:34;22.10;71.60
30385;DHT22;17181;51.002;4.096;2023-07-16T18:27:00;22.20;71.90
30385;DHT22;17181;51.002;4.096;2023-07-16T18:29:27;22.10;72.00
30385;DHT22;17181;51.002;4.096;2023-07-16T18:31:53;22.10;72.10
30385;DHT22;17181;51.002;4.096;2023-07-16T18:34:19;22.10;72.20
30385;DHT22;17181;51.002;4.096;2023-07-16T18:36:44;22.10;72.40
30385;DHT22;17181;51.002;4.096;2023-07-16T18:39:12;22.20;72.60
30385;DHT22;17181;51.002;4.096;2023-07-16T18:41:40;22.20;72.70
30385;DHT22;17181;51.002;4.096;2023-07-16T18:44:07;22.10;72.80
30385;DHT22;17181;51.002;4.096;2023-07-16T18:46:38;22.10;72.90
30385;DHT22;17181;51.002;4.096;2023-07-16T18:49:07;22.10;73.10
30385;DHT22;17181;51.002;4.096;2023-07-16T18:51:34;22.10;73.20
30385;DHT22;17181;51.002;4.096;2023-07-16T18:54:00;22.00;73.60
30385;DHT22;17181;51.002;4.096;2023-07-16T18:56:30;22.00;73.90
30385;DHT22;17181;51.002;4.096;2023-07-16T18:58:57;22.00;73.90
30385;DHT22;17181;51.002;4.096;2023-07-16T19:01:22;21.80;74.20
30385;DHT22;17181;51.002;4.096;2023-07-16T19:03:49;21.70;74.30
30385;DHT22;17181;51.002;4.096;2023-07-16T19:06:16;21.70;74.50
30385;DHT22;17181;51.002;4.096;2023-07-16T19:08:42;21.60;74.60
30385;DHT22;17181;51.002;4.096;2023-07-16T19:11:09;21.70;74.80
30385;DHT22;17181;51.002;4.096;2023-07-16T19:13:35;21.60;74.80
30385;DHT22;17181;51.002;4.096;2023-07-16T19:16:01;21.50;74.90
30385;DHT22;17181;51.002;4.096;2023-07-16T19:18:26;21.50;75.10
30385;DHT22;17181;51.002;4.096;2023-07-16T19:20:52;21.40;75.40
30385;DHT22;17181;51.002;4.096;2023-07-16T19:23:18;21.40;75.40
30385;DHT22;17181;51.002;4.096;2023-07-16T19:25:44;21.30;75.40
30385;DHT22;17181;51.002;4.096;2023-07-16T19:28:09;21.30;75.50
30385;DHT22;17181;51.002;4.096;2023-07-16T19:30:38;21.30;75.80
30385;DHT22;17181;51.002;4.096;2023-07-16T19:33:04;21.30;76.00
30385;DHT22;17181;51.002;4.096;2023-07-16T19:35:30;21.30;76.20
30385;DHT22;17181;51.002;4.096;2023-07-16T19:37:55;21.20;76.40
30385;DHT22;17181;51.002;4.096;2023-07-16T19:40:22;21.20;76.60
30385;DHT22;17181;51.002;4.096;2023-07-16T19:42:48;21.10;77.50
30385;DHT22;17181;51.002;4.096;2023-07-16T19:45:14;21.10;77.10
30385;DHT22;17181;51.002;4.096;2023-07-16T19:47:40;21.00;77.30
30385;DHT22;17181;51.002;4.096;2023-07-16T19:50:07;21.00;77.50
30385;DHT22;17181;51.002;4.096;2023-07-16T19:52:34;20.90;77.60
30385;DHT22;17181;51.002;4.096;2023-07-16T19:55:00;20.90;77.80
30385;DHT22;17181;51.002;4.096;2023-07-16T19:57:30;20.90;77.90
30385;DHT22;17181;51.002;4.096;2023-07-16T20:00:01;20.80;78.00
30385;DHT22;17181;51.002;4.096;2023-07-16T20:02:39;20.80;78.10
30385;DHT22;17181;51.002;4.096;2023-07-16T20:05:05;20.80;78.30
30385;DHT22;17181;51.002;4.096;2023-07-16T20:07:31;20.80;78.20
30385;DHT22;17181;51.002;4.096;2023-07-16T20:10:04;20.80;78.30
30385;DHT22;17181;51.002;4.096;2023-07-16T20:12:31;20.70;78.30
30385;DHT22;17181;51.002;4.096;2023-07-16T20:14:57;20.70;78.40
30385;DHT22;17181;51.002;4.096;2023-07-16T20:17:23;20.70;78.40
30385;DHT22;17181;51.002;4.096;2023-07-16T20:19:49;20.70;78.50
30385;DHT22;17181;51.002;4.096;2023-07-16T20:22:14;20.70;78.60
30385;DHT22;17181;51.002;4.096;2023-07-16T20:24:40;20.70;78.70
30385;DHT22;17181;51.002;4.096;2023-07-16T20:27:06;20.70;78.90
30385;DHT22;17181;51.002;4.096;2023-07-16T20:29:32;20.70;79.00
30385;DHT22;17181;51.002;4.096;2023-07-16T20:31:58;20.70;79.10
30385;DHT22;17181;51.002;4.096;2023-07-16T20:34:23;20.70;79.20
30385;DHT22;17181;51.002;4.096;2023-07-16T20:36:49;20.70;79.30
30385;DHT22;17181;51.002;4.096;2023-07-16T20:39:15;20.70;79.60
30385;DHT22;17181;51.002;4.096;2023-07-16T20:41:41;20.70;79.90
30385;DHT22;17181;51.002;4.096;2023-07-16T20:44:07;20.60;80.10
30385;DHT22;17181;51.002;4.096;2023-07-16T20:46:33;20.60;80.30
30385;DHT22;17181;51.002;4.096;2023-07-16T20:48:59;20.60;80.80
30385;DHT22;17181;51.002;4.096;2023-07-16T20:51:25;20.60;81.30
30385;DHT22;17181;51.002;4.096;2023-07-16T20:53:51;20.60;81.70
30385;DHT22;17181;51.002;4.096;2023-07-16T20:56:17;20.50;81.80
30385;DHT22;17181;51.002;4.096;2023-07-16T20:58:42;20.50;82.50
30385;DHT22;17181;51.002;4.096;2023-07-16T21:01:08;20.40;83.20
30385;DHT22;17181;51.002;4.096;2023-07-16T21:03:34;20.40;84.10
30385;DHT22;17181;51.002;4.096;2023-07-16T21:05:59;20.30;84.00
30385;DHT22;17181;51.002;4.096;2023-07-16T21:08:25;20.30;84.20
30385;DHT22;17181;51.002;4.096;2023-07-16T21:10:52;20.20;84.10
30385;DHT22;17181;51.002;4.096;2023-07-16T21:13:18;20.20;84.10
30385;DHT22;17181;51.002;4.096;2023-07-16T21:15:45;20.20;84.20
30385;DHT22;17181;51.002;4.096;2023-07-16T21:18:11;20.20;84.20
30385;DHT22;17181;51.002;4.096;2023-07-16T21:20:39;20.20;84.10
30385;DHT22;17181;51.002;4.096;2023-07-16T21:23:06;20.20;84.30
30385;DHT22;17181;51.002;4.096;2023-07-16T21:25:32;20.20;85.00
30385;DHT22;17181;51.002;4.096;2023-07-16T21:28:04;20.10;85.30
30385;DHT22;17181;51.002;4.096;2023-07-16T21:30:34;20.20;85.40
30385;DHT22;17181;51.002;4.096;2023-07-16T21:33:00;20.20;85.50
30385;DHT22;17181;51.002;4.096;2023-07-16T21:35:26;20.10;85.60
30385;DHT22;17181;51.002;4.096;2023-07-16T21:37:51;20.10;85.90
30385;DHT22;17181;51.002;4.096;2023-07-16T21:40:18;20.10;85.70
30385;DHT22;17181;51.002;4.096;2023-07-16T21:42:46;20.10;86.10
30385;DHT22;17181;51.002;4.096;2023-07-16T21:45:14;20.00;86.40
30385;DHT22;17181;51.002;4.096;2023-07-16T21:47:40;19.90;86.50
30385;DHT22;17181;51.002;4.096;2023-07-16T21:50:07;19.90;86.70
30385;DHT22;17181;51.002;4.096;2023-07-16T21:52:45;19.90;86.90
30385;DHT22;17181;51.002;4.096;2023-07-16T21:55:14;19.90;87.30
30385;DHT22;17181;51.002;4.096;2023-07-16T21:57:43;19.70;87.20
30385;DHT22;17181;51.002;4.096;2023-07-16T22:00:16;19.70;87.50
30385;DHT22;17181;51.002;4.096;2023-07-16T22:02:42;19.70;87.70
30385;DHT22;17181;51.002;4.096;2023-07-16T22:05:09;19.70;87.90
30385;DHT22;17181;51.002;4.096;2023-07-16T22:07:38;19.70;88.10
30385;DHT22;17181;51.002;4.096;2023-07-16T22:10:10;19.70;88.50
30385;DHT22;17181;51.002;4.096;2023-07-16T22:12:40;19.70;89.00
30385;DHT22;17181;51.002;4.096;2023-07-16T22:15:07;19.60;89.40
30385;DHT22;17181;51.002;4.096;2023-07-16T22:57:36;18.90;91.00
30385;DHT22;17181;51.002;4.096;2023-07-16T23:00:02;18.90;91.00
30385;DHT22;17181;51.002;4.096;2023-07-16T23:02:28;18.90;91.10
30385;DHT22;17181;51.002;4.096;2023-07-16T23:04:54;18.80;91.30
30385;DHT22;17181;51.002;4.096;2023-07-16T23:07:20;18.80;91.40
30385;DHT22;17181;51.002;4.096;2023-07-16T23:09:46;18.80;91.50
30385;DHT22;17181;51.002;4.096;2023-07-16T23:12:12;18.70;91.60
30385;DHT22;17181;51.002;4.096;2023-07-16T23:14:38;18.70;91.80
30385;DHT22;17181;51.002;4.096;2023-07-16T23:17:06;18.70;92.00
30385;DHT22;17181;51.002;4.096;2023-07-16T23:19:33;18.70;92.00
30385;DHT22;17181;51.002;4.096;2023-07-16T23:21:59;18.70;92.20
30385;DHT22;17181;51.002;4.096;2023-07-16T23:24:24;18.60;92.40
30385;DHT22;17181;51.002;4.096;2023-07-16T23:26:50;18.60;92.60
30385;DHT22;17181;51.002;4.096;2023-07-16T23:29:16;18.60;92.60
30385;DHT22;17181;51.002;4.096;2023-07-16T23:31:42;18.60;92.70
